Colville, Washington
Current Conditions -  °F | °C
As of 12:53 AM on Thursday 23 Oct 2014 (Local Time) from KDEW Reporting Station
Overcast Overcast  
Wind Chill: 51°   Ceiling: 5000
Heat Index: 51°   Visibility: 10mi
Dew Point: 47°   Wind: 5mph
Humidity: 86%   Direction: 190°S
Pressure: 29.75"   Gusts: NA
Location:  48.55°N, 117.91°W
Report Text: KDEW 230753Z AUTO 19004KT 10SM OVC050 11/08 A2975 RMK AO2 RAE03B23E37 SLP075 P0001 T01060083 401110000
Loading
Personal Weather Stations






























Interactive Weather Map
Tropical Storm Tracking
New forecast layout! Learn more

10-Day Weather Forecast

Advertisements
Track Severe Weather on mobile